Main page
METAR-TAF:

METAR-TAF

Airports :

Araxá Airport

Araxá, Minas Gerais, Brazil

latitude: 19-33-38S, longitude: 046-57-56W, elevation: 999 m

Current weather observation

The report was made 6 hours and 30 minutes ago, at 22:00 UTC
Wind 5 kt from the East/Northeast
Temperature 21°C
Humidity 78%
Pressure 1020 hPa
Visibility 10 km or more
Scattered clouds at a height of 2500 ft
Few clouds at a height of 3000 ft, Cumulonimbus.
Scattered clouds at a height of 4500 ft
thunderstorm, showers in vicinity

METAR: SBAX 132200Z 06005KT 9999 TS VCSH SCT025 FEW030CB SCT045 21/17 Q1020

Time: 02:30 (04:30 UTC)


TAF: missing

Weather observations and forecasts of more than 4000 airports (METAR and TAF reports).

The available stations are represented by yellow and red dots on the map.

Hover mouse over dot to see the name of the station.

Then click to see weather observations and forecasts.

To change the map : click on the green buttons with a black cross to zoom in, on the green button with a dash to zoom out, or on the green arrows for adjacent maps.


METAR-TAF: